EW7067 Weather Reports


time (UTC)temp
F
wind
direction
speed
knots
gust
knots
rain 1hr
in
rain 24hr
in
rain mn
in
humidity
%
barometer
mb
20211017161708 61 319 7.0 13.0 0.00 0.00 0.00 48 1014.3
20211017161209 60 333 7.0 14.8 0.00 0.00 0.00 48 1014.3
20211017160709 60 0 7.8 14.8 0.00 0.00 0.00 48 1014.4
20211017160207 60 314 7.8 16.5 0.00 0.00 0.00 48 1014.4
20211017155706 60 288 7.0 16.5 0.00 0.00 0.00 49 1014.4
20211017155201 60 340 7.8 15.6 0.00 0.00 0.00 49 1014.3
20211017154655 60 314 7.0 15.6 0.00 0.00 0.00 49 1014.4
20211017154148 60 288 7.0 16.5 0.00 0.00 0.00 51 1014.3
20211017153642 60 292 7.8 16.5 0.00 0.00 0.00 51 1014.3
20211017153139 59 298 6.1 12.2 0.00 0.00 0.00 51 1014.1
20211017152631 59 341 6.1 13.9 0.00 0.00 0.00 53 1014.1
20211017152125 59 320 5.2 13.9 0.00 0.00 0.00 51 1014.3
20211017151618 59 355 5.2 12.2 0.00 0.00 0.00 52 1014.1
20211017151113 59 0 6.1 12.2 0.00 0.00 0.00 53 1014.1
20211017150607 58 327 7.0 12.2 0.00 0.00 0.00 52 1014.3
20211017150102 58 330 6.1 11.3 0.00 0.00 0.00 54 1014.1
20211017145555 58 313 5.2 11.3 0.00 0.00 0.00 57 1014.3
20211017145049 58 294 5.2 11.3 0.00 0.00 0.00 58 1014.4
20211017144544 57 57 5.2 11.3 0.00 0.00 0.00 59 1014.1
20211017144037 57 0 4.3 9.6 0.00 0.00 0.00 59 1014.3
20211017143530 57 334 6.1 12.2 0.00 0.00 0.00 61 1014.3
20211017143025 56 327 7.0 12.2 0.00 0.00 0.00 61 1014.3
20211017142520 56 13 5.2 9.6 0.00 0.00 0.00 62 1014.4
20211017142014 56 272 4.3 8.7 0.00 0.00 0.00 60 1014.4
20211017141507 56 334 4.3 8.7 0.00 0.00 0.00 64 1014.5
20211017140959 56 17 3.5 7.8 0.00 0.00 0.00 64 1014.5
20211017140453 56 286 2.6 7.0 0.00 0.00 0.00 63 1014.3
20211017135949 55 286 2.6 7.0 0.00 0.00 0.00 65 1014.1
20211017135442 55 290 2.6 7.0 0.00 0.00 0.00 66 1014.0
20211017134937 55 226 2.6 7.0 0.00 0.00 0.00 68 1013.9
20211017134431 54 307 2.6 7.0 0.00 0.00 0.00 68 1013.9
20211017133924 54 294 2.6 6.1 0.00 0.00 0.00 70 1014.0
20211017133419 54 298 2.6 4.3 0.00 0.00 0.00 70 1013.9
20211017132913 53 298 1.7 4.3 0.00 0.00 0.00 74 1013.9
20211017132407 52 239 0.9 2.6 0.00 0.00 0.00 77 1013.8
20211017131901 51 132 0.9 1.7 0.00 0.00 0.00 78 1013.8
20211017131355 50 132 0.0 0.9 0.00 0.00 0.00 83 1013.8
20211017130849 49 132 0.0 0.9 0.00 0.00 0.00 85 1013.8
20211017130343 48 126 0.0 0.9 0.00 0.00 0.00 87 1013.8
20211017125836 47 176 0.0 0.0 0.00 0.00 0.00 93 1013.9
20211017125333 45 176 0.0 0.0 0.00 0.00 0.00 94 1013.8
20211017124828 43 176 0.0 0.0 0.00 0.00 0.00 95 1013.8
20211017124319 42 176 0.0 0.0 0.00 0.00 0.00 95 1013.7
20211017123814 41 176 0.0 0.9 0.00 0.00 0.00 95 1013.6
20211017123307 40 176 0.0 0.9 0.00 0.00 0.00 95 1013.6
20211017122802 39 176 0.0 0.0 0.00 0.00 0.00 95 1013.7
20211017122255 39 176 0.0 0.9 0.00 0.00 0.00 95 1013.6
20211017121749 39 176 0.0 0.9 0.00 0.00 0.00 95 1013.5
20211017121243 38 176 0.0 0.9 0.00 0.00 0.00 95 1013.6
20211017120737 38 176 0.0 0.9 0.00 0.00 0.00 95 1013.5
20211017120231 38 176 0.0 0.9 0.00 0.00 0.00 95 1013.5
20211017115724 38 176 0.0 0.9 0.00 0.00 0.00 95 1013.4
20211017115219 39 176 0.0 0.9 0.00 0.00 0.00 94 1013.3
20211017114714 39 176 0.0 0.9 0.00 0.00 0.00 94 1013.3
20211017114207 39 176 0.0 0.9 0.00 0.00 0.00 94 1013.3
20211017113700 39 176 0.0 0.9 0.00 0.00 0.00 94 1013.3
20211017113153 39 176 0.0 0.9 0.00 0.00 0.00 94 1013.1
20211017112649 39 176 0.0 1.7 0.00 0.00 0.00 93 1013.1
20211017112143 39 176 0.0 1.7 0.00 0.00 0.00 94 1013.0
20211017111637 39 176 0.0 0.9 0.00 0.00 0.00 93 1013.0
20211017111132 39 176 0.0 0.9 0.00 0.00 0.00 93 1012.9
20211017110626 40 176 0.0 0.9 0.00 0.00 0.00 92 1012.9
20211017110117 40 176 0.0 1.7 0.00 0.00 0.00 92 1012.8
20211017105612 40 176 0.0 1.7 0.00 0.00 0.00 91 1012.8
20211017105107 40 176 0.0 1.7 0.00 0.00 0.00 92 1012.8
20211017104601 40 176 0.0 1.7 0.00 0.00 0.00 92 1012.8
20211017104055 41 176 0.9 1.7 0.00 0.00 0.00 91 1012.7
20211017103549 41 176 0.9 1.7 0.00 0.00 0.00 92 1012.6
20211017103046 40 176 0.9 1.7 0.00 0.00 0.00 93 1012.6
20211017102543 40 176 0.0 1.7 0.00 0.00 0.00 93 1012.5
20211017102043 40 176 0.0 0.9 0.00 0.00 0.00 92 1012.4
20211017101545 40 176 0.0 0.9 0.00 0.00 0.00 93 1012.5
20211017101043 40 176 0.0 1.7 0.00 0.00 0.00 93 1012.5
20211017100545 40 176 0.0 1.7 0.00 0.00 0.00 94 1012.4
20211017100043 40 176 0.0 1.7 0.00 0.00 0.00 93 1012.3
20211017095543 40 176 0.0 1.7 0.00 0.00 0.00 92 1012.3
20211017095043 40 176 0.9 4.3 0.00 0.00 0.00 92 1012.2
20211017094544 40 176 0.9 4.3 0.00 0.00 0.00 92 1012.2
20211017094043 40 290 0.9 3.5 0.00 0.00 0.00 91 1012.2
20211017093543 41 290 0.9 3.5 0.00 0.00 0.00 90 1012.2
20211017093045 41 290 0.9 2.6 0.00 0.00 0.00 90 1012.2
20211017092543 41 290 0.9 2.6 0.00 0.00 0.00 90 1012.2
20211017092041 41 290 0.9 1.7 0.00 0.00 0.00 91 1012.2
20211017091541 40 290 0.9 1.7 0.00 0.00 0.00 92 1012.2
20211017091042 41 291 0.0 1.7 0.00 0.00 0.00 91 1012.2
20211017090537 41 291 0.0 1.7 0.00 0.00 0.00 91 1012.2
20211017090035 41 291 0.0 1.7 0.00 0.00 0.00 92 1012.2
20211017085533 41 291 0.0 1.7 0.00 0.00 0.00 91 1012.3
20211017085036 41 291 0.0 1.7 0.00 0.00 0.00 90 1012.2
20211017084531 41 291 0.9 3.5 0.00 0.00 0.00 89 1012.3
20211017084034 42 291 0.9 5.2 0.00 0.00 0.00 88 1012.2
20211017083532 42 291 0.9 5.2 0.00 0.00 0.00 89 1012.1
20211017083031 42 231 0.9 2.6 0.00 0.00 0.00 89 1012.1
20211017082531 42 231 0.9 1.7 0.00 0.00 0.00 88 1012.1
20211017082032 43 231 0.9 1.7 0.00 0.00 0.00 86 1012.1
20211017081532 44 231 0.9 2.6 0.00 0.00 0.00 84 1012.2
20211017081028 44 231 0.9 2.6 0.00 0.00 0.00 83 1012.1
20211017080529 44 231 0.9 2.6 0.00 0.00 0.00 83 1012.0
20211017080027 45 231 0.9 2.6 0.00 0.00 0.00 82 1012.0
20211017075528 45 231 0.9 2.6 0.00 0.00 0.00 82 1012.0
20211017075028 45 231 0.9 2.6 0.00 0.00 0.00 82 1012.1
20211017074529 45 231 0.9 2.6 0.00 0.00 0.00 81 1012.0
20211017074028 45 231 0.9 2.6 0.00 0.00 0.00 81 1012.0
20211017073528 45 231 0.9 2.6 0.00 0.00 0.00 80 1012.0
20211017073030 45 231 0.9 1.7 0.00 0.00 0.00 80 1012.1
20211017072523 45 231 0.9 1.7 0.00 0.00 0.00 81 1012.1
20211017072023 45 231 0.9 1.7 0.00 0.00 0.00 80 1012.1
20211017071524 45 231 0.9 1.7 0.00 0.00 0.00 79 1012.1
20211017071024 46 231 0.9 2.6 0.00 0.00 0.00 79 1012.1
20211017070525 46 231 1.7 2.6 0.00 0.00 0.00 79 1012.1
20211017070023 47 231 0.9 2.6 0.00 0.00 0.00 78 1012.0
20211017065523 47 231 0.9 1.7 0.00 0.00 0.00 79 1012.1
20211017065026 47 231 0.9 2.6 0.00 0.00 0.00 76 1012.2
20211017064524 47 231 0.9 2.6 0.00 0.00 0.00 77 1012.2
20211017064022 48 231 0.9 2.6 0.00 0.00 0.00 76 1012.2
20211017063523 48 231 0.9 2.6 0.00 0.00 0.00 76 1012.1
20211017063022 47 231 0.9 4.3 0.00 0.00 0.00 74 1012.1
20211017062524 47 231 0.9 4.3 0.00 0.00 0.00 76 1012.2
20211017062021 47 282 0.9 2.6 0.00 0.00 0.00 77 1012.2
20211017061523 46 282 0.9 2.6 0.00 0.00 0.00 80 1012.2
20211017061019 46 282 0.9 2.6 0.00 0.00 0.00 81 1012.1
20211017060517 46 282 0.0 1.7 0.00 0.00 0.00 81 1012.2
20211017060018 46 282 0.9 2.6 0.00 0.00 0.00 81 1012.1
20211017055519 46 282 0.9 3.5 0.00 0.00 0.00 81 1012.1
20211017055017 46 282 1.7 3.5 0.00 0.00 0.00 81 1012.1
20211017054518 46 282 0.9 2.6 0.00 0.00 0.00 80 1012.1
20211017054016 46 282 0.9 2.6 0.00 0.00 0.00 80 1012.1
20211017053515 46 282 0.0 1.7 0.00 0.00 0.00 81 1012.1
20211017053016 46 282 0.0 2.6 0.00 0.00 0.00 82 1012.2
20211017052510 47 282 0.9 2.6 0.00 0.00 0.00 79 1012.2
20211017052002 47 282 0.9 1.7 0.00 0.00 0.00 81 1012.1
20211017051456 47 282 0.0 1.7 0.00 0.00 0.00 81 1012.1
20211017050951 47 282 0.9 3.5 0.00 0.00 0.00 81 1012.1
20211017050450 47 282 0.9 3.5 0.00 0.00 0.00 79 1012.1
20211017045950 47 282 0.9 2.6 0.00 0.00 0.00 78 1012.1
20211017045449 47 282 0.9 1.7 0.00 0.00 0.00 80 1012.1
20211017044949 48 282 0.9 1.7 0.00 0.00 0.00 80 1012.0
20211017044450 48 282 0.9 2.6 0.00 0.00 0.00 79 1012.0
20211017043947 48 282 1.7 2.6 0.00 0.00 0.00 78 1012.0
20211017043448 49 282 1.7 1.7 0.00 0.00 0.00 78 1012.0
20211017042948 49 282 0.9 1.7 0.00 0.00 0.00 78 1012.0
20211017042445 49 282 0.9 1.7 0.00 0.00 0.00 78 1012.0
20211017041943 49 282 0.0 1.7 0.00 0.00 0.00 77 1012.0
20211017041444 49 282 0.0 0.9 0.00 0.00 0.00 77 1012.0
20211017040943 49 282 0.0 1.7 0.00 0.00 0.00 75 1012.0
20211017040442 49 282 0.0 1.7 0.00 0.00 0.00 75 1012.0
20211017035940 49 282 0.0 0.0 0.00 0.00 0.00 75 1012.0
20211017035441 49 282 0.0 0.9 0.00 0.00 0.00 75 1012.0
20211017034937 49 282 0.0 0.9 0.00 0.00 0.00 75 1012.0
20211017034435 50 282 0.0 0.9 0.00 0.00 0.00 74 1012.0
20211017033934 50 282 0.0 1.7 0.00 0.00 0.00 74 1011.9
20211017033436 50 282 0.0 1.7 0.00 0.00 0.00 74 1011.8
20211017032926 51 282 0.0 0.9 0.00 0.00 0.00 73 1011.8
20211017032421 51 282 0.0 0.9 0.00 0.00 0.00 70 1011.8
20211017031923 52 282 0.0 0.9 0.00 0.00 0.00 69 1011.7
20211017031421 53 282 0.0 1.7 0.00 0.00 0.00 68 1011.6
20211017030921 53 282 0.9 7.0 0.00 0.00 0.00 66 1011.6
20211017030419 54 282 1.7 7.0 0.00 0.00 0.00 64 1011.6
20211017025918 54 325 1.7 4.3 0.00 0.00 0.00 63 1011.5
20211017025418 55 325 3.5 11.3 0.00 0.00 0.00 63 1011.5
20211017024918 55 326 5.2 11.3 0.00 0.00 0.00 62 1011.4
20211017024415 55 298 5.2 11.3 0.00 0.00 0.00 62 1011.5
20211017023913 54 315 3.5 9.6 0.00 0.00 0.00 62 1011.4
20211017023415 54 310 3.5 7.8 0.00 0.00 0.00 64 1011.3
20211017022913 54 310 3.5 7.8 0.00 0.00 0.00 63 1011.3
20211017022414 55 311 3.5 7.0 0.00 0.00 0.00 64 1011.3
20211017021915 55 311 2.6 5.2 0.00 0.00 0.00 63 1011.3
20211017021412 55 311 3.5 9.6 0.00 0.00 0.00 63 1011.2
20211017020913 55 311 3.5 9.6 0.00 0.00 0.00 62 1011.1
20211017020413 56 311 2.6 7.8 0.00 0.00 0.00 63 1011.1
20211017015912 56 311 2.6 7.8 0.00 0.00 0.00 62 1010.9
20211017015405 56 311 4.3 10.4 0.00 0.00 0.00 61 1010.9
20211017014900 56 335 4.3 10.4 0.00 0.00 0.00 61 1010.9
20211017014354 57 331 4.3 10.4 0.00 0.00 0.00 61 1010.8
20211017013847 57 311 6.1 12.2 0.00 0.00 0.00 60 1010.8
20211017013341 57 309 7.0 13.0 0.00 0.00 0.00 61 1010.7
20211017012835 57 309 6.1 13.0 0.00 0.00 0.00 60 1010.7
20211017012330 56 311 5.2 12.2 0.00 0.00 0.00 60 1010.7
20211017011825 56 321 5.2 12.2 0.00 0.00 0.00 62 1010.6
20211017011318 56 309 4.3 12.2 0.00 0.00 0.00 62 1010.5
20211017010811 56 321 1.7 9.6 0.00 0.00 0.00 62 1010.4
20211017010305 56 309 0.9 3.5 0.00 0.00 0.00 63 1010.4
20211017005800 57 309 1.7 7.8 0.00 0.00 0.00 63 1010.3
20211017005255 57 309 2.6 8.7 0.00 0.00 0.00 62 1010.3
20211017004748 57 310 3.5 8.7 0.00 0.00 0.00 63 1010.2
20211017004242 57 334 3.5 8.7 0.00 0.00 0.00 62 1010.1
20211017003735 57 326 3.5 7.8 0.00 0.00 0.00 63 1010.0
20211017003230 57 309 3.5 10.4 0.00 0.00 0.00 63 1009.9
20211017002723 58 314 3.5 10.4 0.00 0.00 0.00 63 1009.9
20211017002218 58 309 3.5 11.3 0.00 0.00 0.00 63 1009.9
20211017001711 58 322 4.3 11.3 0.00 0.00 0.00 62 1009.9
20211017001206 58 294 4.3 9.6 0.00 0.00 0.00 62 1009.8
20211017000659 58 294 5.2 10.4 0.00 0.00 0.00 61 1009.7
20211017000154 58 301 5.2 10.4 0.00 0.00 0.00 61 1009.6
20211016235648 58 300 4.3 12.2 0.00 0.00 0.00 60 1009.6
20211016235142 58 342 3.5 12.2 0.00 0.00 0.00 60 1009.6
20211016234635 58 9 4.3 10.4 0.00 0.00 0.00 61 1009.5
20211016234130 58 24 4.3 10.4 0.00 0.00 0.00 61 1009.4
20211016233624 59 306 5.2 11.3 0.00 0.00 0.00 61 1009.3
20211016233119 59 342 5.2 11.3 0.00 0.00 0.00 62 1009.2
20211016232611 58 325 3.5 10.4 0.00 0.00 0.00 63 1009.2
20211016232104 58 327 1.7 10.4 0.00 0.00 0.00 64 1009.1
20211016231600 59 323 2.6 5.2 0.00 0.00 0.00 63 1009.0
20211016231054 59 323 2.6 5.2 0.00 0.00 0.00 61 1008.9
20211016230548 59 324 2.6 4.3 0.00 0.00 0.00 60 1008.8
20211016230042 60 323 3.5 7.0 0.00 0.00 0.00 59 1008.8
20211016225536 60 323 5.2 12.2 0.00 0.00 0.00 59 1008.7
20211016225029 60 302 5.2 12.2 0.00 0.00 0.00 58 1008.7
20211016224524 61 333 4.3 9.6 0.00 0.00 0.00 58 1008.7
20211016224017 61 323 4.3 9.6 0.00 0.00 0.00 57 1008.6
20211016223511 61 321 6.1 14.8 0.00 0.00 0.00 58 1008.5
20211016223007 62 339 7.0 14.8 0.00 0.00 0.00 58 1008.5
20211016222500 62 314 6.1 13.0 0.00 0.00 0.00 59 1008.4
20211016221953 62 311 5.2 13.0 0.00 0.00 0.00 59 1008.4
20211016221447 63 322 6.1 12.2 0.00 0.00 0.00 61 1008.2
20211016220942 63 299 6.1 14.8 0.00 0.00 0.00 59 1008.1
20211016220438 64 0 6.1 14.8 0.00 0.00 0.00 58 1008.0
20211016215930 64 5 5.2 12.2 0.00 0.00 0.00 58 1008.0
20211016215424 65 355 5.2 10.4 0.00 0.00 0.00 60 1007.9
20211016214918 65 305 5.2 10.4 0.00 0.00 0.00 60 1007.6
20211016214412 65 301 7.0 13.9 0.00 0.00 0.00 58 1007.5
20211016213906 66 322 7.8 13.9 0.00 0.00 0.00 58 1007.5
20211016213358 67 309 7.0 13.0 0.00 0.00 0.00 58 1007.4
20211016212854 67 317 7.0 13.0 0.00 0.00 0.00 58 1007.2
20211016212348 68 317 7.0 15.6 0.00 0.00 0.00 58 1007.1
20211016211842 68 309 6.1 15.6 0.00 0.00 0.00 58 1007.0
20211016211336 68 5 7.0 13.0 0.00 0.00 0.00 59 1006.9
20211016210834 68 293 7.8 13.0 0.00 0.00 0.00 57 1006.9
20211016210336 68 336 8.7 16.5 0.00 0.00 0.00 57 1006.9
20211016205836 68 309 10.4 16.5 0.00 0.00 0.00 57 1006.8
20211016205334 68 299 10.4 16.5 0.00 0.00 0.00 55 1006.7
20211016204835 68 271 10.4 20.9 0.00 0.00 0.00 54 1006.6
20211016204332 69 263 9.6 20.9 0.00 0.00 0.00 53 1006.6
20211016203834 69 304 10.4 19.1 0.00 0.00 0.00 56 1006.6
20211016203333 69 305 10.4 19.1 0.00 0.00 0.00 57 1006.5
20211016202830 69 307 10.4 21.7 0.00 0.00 0.00 57 1006.3
20211016202332 69 293 12.2 21.7 0.00 0.00 0.00 57 1006.3
20211016201832 69 288 10.4 20.9 0.00 0.00 0.00 57 1006.3
20211016201329 69 306 7.0 17.4 0.00 0.00 0.00 56 1006.3
20211016200828 70 9 5.2 16.5 0.00 0.00 0.00 57 1006.3
20211016200329 70 296 7.0 17.4 0.00 0.00 0.00 60 1006.2
20211016195829 70 346 8.7 17.4 0.00 0.00 0.00 60 1006.1
20211016195331 70 355 9.6 19.1 0.00 0.00 0.00 59 1006.0
20211016194828 70 290 9.6 19.1 0.00 0.00 0.00 56 1006.0
20211016194330 70 292 8.7 19.1 0.00 0.00 0.00 55 1006.0
20211016193823 70 346 7.8 19.1 0.00 0.00 0.00 58 1005.9
20211016193317 70 320 9.6 19.1 0.00 0.00 0.00 55 1005.8
20211016192812 70 302 11.3 20.9 0.00 0.00 0.00 56 1005.8
20211016192306 70 304 10.4 20.9 0.00 0.00 0.00 56 1005.8
20211016191803 71 300 10.4 17.4 0.00 0.00 0.00 56 1005.8
20211016191302 71 288 10.4 19.1 0.00 0.00 0.00 59 1005.7
20211016190804 71 322 10.4 19.1 0.00 0.00 0.00 58 1005.6
20211016190304 70 296 9.6 17.4 0.00 0.00 0.00 62 1005.7
20211016185800 70 341 8.7 16.5 0.00 0.00 0.00 63 1005.6
20211016185301 69 341 9.6 16.5 0.00 0.00 0.00 64 1005.6
20211016184801 70 326 9.6 18.2 0.00 0.00 0.00 64 1005.6
20211016184301 69 335 9.6 18.2 0.00 0.00 0.00 67 1005.5
20211016183801 69 290 9.6 17.4 0.00 0.00 0.00 68 1005.6
20211016183301 69 314 8.7 19.1 0.00 0.00 0.00 68 1005.5
20211016182802 70 310 7.8 19.1 0.00 0.00 0.00 69 1005.3
20211016182306 70 295 9.6 17.4 0.00 0.00 0.00 68 1005.2
20211016181802 70 316 9.6 21.7 0.00 0.00 0.00 69 1005.1
20211016181258 71 296 8.7 21.7 0.00 0.00 0.00 70 1005.0
20211016180800 71 300 7.8 15.6 0.00 0.00 0.00 70 1004.9
20211016180258 72 302 8.7 15.6 0.00 0.00 0.00 71 1004.9
20211016175759 72 268 9.6 17.4 0.00 0.00 0.00 69 1004.8
20211016175259 73 301 9.6 17.4 0.00 0.00 0.00 67 1004.8
20211016174759 74 296 8.7 16.5 0.00 0.00 0.00 65 1004.7
20211016174259 75 291 8.7 18.2 0.00 0.00 0.00 66 1004.5
20211016173801 76 323 9.6 18.2 0.00 0.00 0.00 65 1004.4
20211016173301 76 314 10.4 16.5 0.00 0.00 0.00 63 1004.5
20211016172754 75 312 11.3 21.7 0.00 0.00 0.00 67 1004.4
20211016172256 75 289 10.4 21.7 0.00 0.00 0.00 67 1004.4
20211016171754 75 292 9.6 19.1 0.00 0.00 0.00 66 1004.4
20211016171255 75 306 9.6 17.4 0.00 0.00 0.00 68 1004.3
20211016170756 75 293 8.7 17.4 0.00 0.00 0.00 69 1004.4
20211016170256 74 297 7.0 14.8 0.00 0.00 0.00 69 1004.4
20211016165754 74 290 6.1 11.3 0.00 0.00 0.00 71 1004.3
20211016165256 74 304 6.1 10.4 0.00 0.00 0.00 72 1004.2
20211016164757 74 289 5.2 9.6 0.00 0.00 0.00 72 1004.2
20211016164254 74 295 4.3 8.7 0.00 0.00 0.00 73 1004.2
20211016163754 74 293 5.2 10.4 0.00 0.00 0.00 75 1004.2
20211016163255 74 311 6.1 12.2 0.00 0.00 0.00 75 1004.2
20211016162755 74 309 5.2 12.2 0.00 0.00 0.00 74 1004.2
20211016162256 73 292 5.2 13.9 0.00 0.00 0.00 81 1004.2
20211016161756 73 297 4.3 13.9 0.00 0.00 0.00 81 1004.2